sensor_id;sensor_type;location;lat;lon;timestamp;temperature;humidity
42145;DHT22;27813;43.516;11.890;2024-03-06T06:10:08;3.10;96.30
42145;DHT22;27813;43.516;11.890;2024-03-06T06:14:28;3.00;96.10
42145;DHT22;27813;43.516;11.890;2024-03-06T06:18:51;3.10;96.40
42145;DHT22;27813;43.516;11.890;2024-03-06T06:22:58;3.30;96.90
42145;DHT22;27813;43.516;11.890;2024-03-06T06:27:02;3.40;96.80
42145;DHT22;27813;43.516;11.890;2024-03-06T06:31:07;3.30;96.50
42145;DHT22;27813;43.516;11.890;2024-03-06T06:35:11;3.20;96.00
42145;DHT22;27813;43.516;11.890;2024-03-06T06:39:17;3.00;95.60
42145;DHT22;27813;43.516;11.890;2024-03-06T06:43:21;2.90;95.40
42145;DHT22;27813;43.516;11.890;2024-03-06T06:47:26;2.90;95.30
42145;DHT22;27813;43.516;11.890;2024-03-06T06:51:30;2.80;95.30
42145;DHT22;27813;43.516;11.890;2024-03-06T06:55:35;2.90;95.40
42145;DHT22;27813;43.516;11.890;2024-03-06T06:59:40;2.90;95.80
42145;DHT22;27813;43.516;11.890;2024-03-06T07:03:46;3.00;95.90
42145;DHT22;27813;43.516;11.890;2024-03-06T07:07:50;3.20;96.10
42145;DHT22;27813;43.516;11.890;2024-03-06T07:11:57;3.40;96.20
42145;DHT22;27813;43.516;11.890;2024-03-06T07:16:03;3.50;96.30
42145;DHT22;27813;43.516;11.890;2024-03-06T07:20:08;3.70;96.60
42145;DHT22;27813;43.516;11.890;2024-03-06T07:24:14;4.40;97.70
42145;DHT22;27813;43.516;11.890;2024-03-06T07:28:18;5.00;98.20
42145;DHT22;27813;43.516;11.890;2024-03-06T07:32:23;5.30;98.30
42145;DHT22;27813;43.516;11.890;2024-03-06T07:36:27;5.80;98.60
42145;DHT22;27813;43.516;11.890;2024-03-06T07:40:32;6.10;98.80
42145;DHT22;27813;43.516;11.890;2024-03-06T07:44:36;6.40;98.80
42145;DHT22;27813;43.516;11.890;2024-03-06T07:48:43;6.80;99.00
42145;DHT22;27813;43.516;11.890;2024-03-06T07:52:48;7.30;99.10
42145;DHT22;27813;43.516;11.890;2024-03-06T07:56:55;7.60;99.10
42145;DHT22;27813;43.516;11.890;2024-03-06T08:00:59;7.80;99.10
42145;DHT22;27813;43.516;11.890;2024-03-06T08:05:04;8.00;99.20
42145;DHT22;27813;43.516;11.890;2024-03-06T08:09:08;8.20;99.20
42145;DHT22;27813;43.516;11.890;2024-03-06T08:13:13;8.00;98.90
42145;DHT22;27813;43.516;11.890;2024-03-06T08:17:20;7.90;99.00
42145;DHT22;27813;43.516;11.890;2024-03-06T08:21:24;7.80;98.90
42145;DHT22;27813;43.516;11.890;2024-03-06T08:25:28;7.70;98.80
42145;DHT22;27813;43.516;11.890;2024-03-06T08:29:36;7.40;98.40
42145;DHT22;27813;43.516;11.890;2024-03-06T08:33:41;7.10;98.10
42145;DHT22;27813;43.516;11.890;2024-03-06T08:37:46;7.00;98.10
42145;DHT22;27813;43.516;11.890;2024-03-06T08:41:50;6.90;98.10
42145;DHT22;27813;43.516;11.890;2024-03-06T08:45:54;6.90;98.20
42145;DHT22;27813;43.516;11.890;2024-03-06T08:50:00;6.90;98.30
42145;DHT22;27813;43.516;11.890;2024-03-06T08:54:07;7.00;98.40
42145;DHT22;27813;43.516;11.890;2024-03-06T08:58:15;7.00;98.40
42145;DHT22;27813;43.516;11.890;2024-03-06T09:02:20;7.20;98.50
42145;DHT22;27813;43.516;11.890;2024-03-06T09:06:25;7.40;98.60
42145;DHT22;27813;43.516;11.890;2024-03-06T09:10:31;7.50;98.50
42145;DHT22;27813;43.516;11.890;2024-03-06T09:14:36;7.60;98.50
42145;DHT22;27813;43.516;11.890;2024-03-06T09:18:42;7.80;98.50
42145;DHT22;27813;43.516;11.890;2024-03-06T09:22:47;8.10;98.70
42145;DHT22;27813;43.516;11.890;2024-03-06T09:26:51;8.60;99.00
42145;DHT22;27813;43.516;11.890;2024-03-06T09:30:56;9.20;99.10
42145;DHT22;27813;43.516;11.890;2024-03-06T09:35:01;9.80;99.20
42145;DHT22;27813;43.516;11.890;2024-03-06T09:39:05;10.50;99.40
42145;DHT22;27813;43.516;11.890;2024-03-06T09:43:12;11.10;99.30
42145;DHT22;27813;43.516;11.890;2024-03-06T09:47:18;11.40;99.00
42145;DHT22;27813;43.516;11.890;2024-03-06T09:51:28;11.40;98.30
42145;DHT22;27813;43.516;11.890;2024-03-06T09:55:34;11.40;97.90
42145;DHT22;27813;43.516;11.890;2024-03-06T09:59:39;11.20;97.50
42145;DHT22;27813;43.516;11.890;2024-03-06T10:03:47;11.10;97.40
42145;DHT22;27813;43.516;11.890;2024-03-06T10:07:52;11.20;97.90
42145;DHT22;27813;43.516;11.890;2024-03-06T10:11:57;11.40;98.30
42145;DHT22;27813;43.516;11.890;2024-03-06T10:16:07;11.50;98.40
42145;DHT22;27813;43.516;11.890;2024-03-06T10:20:23;11.80;98.50
42145;DHT22;27813;43.516;11.890;2024-03-06T10:24:28;11.90;98.60
42145;DHT22;27813;43.516;11.890;2024-03-06T10:28:33;12.00;98.50
42145;DHT22;27813;43.516;11.890;2024-03-06T10:32:37;12.20;98.60
42145;DHT22;27813;43.516;11.890;2024-03-06T10:36:42;12.40;98.70
42145;DHT22;27813;43.516;11.890;2024-03-06T10:40:48;12.60;98.80
42145;DHT22;27813;43.516;11.890;2024-03-06T10:44:59;12.80;98.90
42145;DHT22;27813;43.516;11.890;2024-03-06T10:49:09;13.10;99.10
42145;DHT22;27813;43.516;11.890;2024-03-06T10:53:16;13.40;99.20
42145;DHT22;27813;43.516;11.890;2024-03-06T10:57:26;13.80;99.30
42145;DHT22;27813;43.516;11.890;2024-03-06T11:01:32;14.10;99.20
42145;DHT22;27813;43.516;11.890;2024-03-06T11:05:42;14.30;99.10
42145;DHT22;27813;43.516;11.890;2024-03-06T11:09:47;14.50;98.80
42145;DHT22;27813;43.516;11.890;2024-03-06T11:14:04;14.70;98.70
42145;DHT22;27813;43.516;11.890;2024-03-06T11:27:04;15.30;97.50
42145;DHT22;27813;43.516;11.890;2024-03-06T11:31:11;15.50;97.50
42145;DHT22;27813;43.516;11.890;2024-03-06T11:35:18;15.50;97.20
42145;DHT22;27813;43.516;11.890;2024-03-06T11:39:32;15.50;97.00
42145;DHT22;27813;43.516;11.890;2024-03-06T11:43:44;15.50;97.10
42145;DHT22;27813;43.516;11.890;2024-03-06T11:48:02;15.50;97.30
42145;DHT22;27813;43.516;11.890;2024-03-06T11:52:08;15.50;97.50
42145;DHT22;27813;43.516;11.890;2024-03-06T11:56:14;15.60;97.70
42145;DHT22;27813;43.516;11.890;2024-03-06T12:00:18;15.60;97.40
42145;DHT22;27813;43.516;11.890;2024-03-06T12:04:23;15.50;97.00
42145;DHT22;27813;43.516;11.890;2024-03-06T12:08:28;15.50;97.20
42145;DHT22;27813;43.516;11.890;2024-03-06T12:12:32;15.40;97.20
42145;DHT22;27813;43.516;11.890;2024-03-06T12:16:37;15.50;97.50
42145;DHT22;27813;43.516;11.890;2024-03-06T12:20:42;15.70;97.70
42145;DHT22;27813;43.516;11.890;2024-03-06T12:24:58;15.80;97.20
42145;DHT22;27813;43.516;11.890;2024-03-06T12:29:09;15.80;96.80
42145;DHT22;27813;43.516;11.890;2024-03-06T12:33:19;15.70;96.50
42145;DHT22;27813;43.516;11.890;2024-03-06T12:37:32;15.70;96.80
42145;DHT22;27813;43.516;11.890;2024-03-06T12:41:38;15.70;96.40
42145;DHT22;27813;43.516;11.890;2024-03-06T12:45:48;15.60;95.90
42145;DHT22;27813;43.516;11.890;2024-03-06T12:49:59;15.50;96.10
42145;DHT22;27813;43.516;11.890;2024-03-06T12:54:03;15.40;96.20
42145;DHT22;27813;43.516;11.890;2024-03-06T12:58:07;15.50;96.90
42145;DHT22;27813;43.516;11.890;2024-03-06T13:02:12;15.80;97.50
42145;DHT22;27813;43.516;11.890;2024-03-06T13:06:16;16.00;97.60
42145;DHT22;27813;43.516;11.890;2024-03-06T13:10:21;16.30;97.20
42145;DHT22;27813;43.516;11.890;2024-03-06T13:14:26;16.60;97.10
42145;DHT22;27813;43.516;11.890;2024-03-06T13:18:30;16.90;97.20
42145;DHT22;27813;43.516;11.890;2024-03-06T13:22:34;17.00;96.00
42145;DHT22;27813;43.516;11.890;2024-03-06T13:26:39;16.60;95.10
42145;DHT22;27813;43.516;11.890;2024-03-06T13:30:44;16.00;95.10
42145;DHT22;27813;43.516;11.890;2024-03-06T13:34:50;15.30;94.10
42145;DHT22;27813;43.516;11.890;2024-03-06T13:38:54;14.40;92.70
42145;DHT22;27813;43.516;11.890;2024-03-06T13:42:59;13.30;92.90
42145;DHT22;27813;43.516;11.890;2024-03-06T13:47:04;12.90;95.70
42145;DHT22;27813;43.516;11.890;2024-03-06T13:51:08;12.40;95.40
42145;DHT22;27813;43.516;11.890;2024-03-06T13:55:12;11.90;95.40
42145;DHT22;27813;43.516;11.890;2024-03-06T13:59:17;11.50;95.70
42145;DHT22;27813;43.516;11.890;2024-03-06T14:03:21;10.70;93.60
42145;DHT22;27813;43.516;11.890;2024-03-06T14:07:26;9.70;93.00
42145;DHT22;27813;43.516;11.890;2024-03-06T14:11:30;9.10;95.40
42145;DHT22;27813;43.516;11.890;2024-03-06T14:15:36;8.90;96.70
42145;DHT22;27813;43.516;11.890;2024-03-06T14:19:42;9.20;97.70
42145;DHT22;27813;43.516;11.890;2024-03-06T14:23:46;9.50;98.20
42145;DHT22;27813;43.516;11.890;2024-03-06T14:27:51;9.90;98.30
42145;DHT22;27813;43.516;11.890;2024-03-06T14:31:55;10.00;98.00
42145;DHT22;27813;43.516;11.890;2024-03-06T14:36:00;10.20;98.50
42145;DHT22;27813;43.516;11.890;2024-03-06T14:40:06;10.30;98.70
42145;DHT22;27813;43.516;11.890;2024-03-06T14:44:12;10.30;98.40
42145;DHT22;27813;43.516;11.890;2024-03-06T14:48:17;10.40;98.60
42145;DHT22;27813;43.516;11.890;2024-03-06T14:52:22;10.40;98.70
42145;DHT22;27813;43.516;11.890;2024-03-06T14:56:27;10.50;98.70
42145;DHT22;27813;43.516;11.890;2024-03-06T15:00:31;10.50;98.70
42145;DHT22;27813;43.516;11.890;2024-03-06T15:04:35;10.40;98.40
42145;DHT22;27813;43.516;11.890;2024-03-06T15:08:40;10.20;98.20
42145;DHT22;27813;43.516;11.890;2024-03-06T15:12:44;10.00;98.10
42145;DHT22;27813;43.516;11.890;2024-03-06T15:16:50;9.80;97.90
42145;DHT22;27813;43.516;11.890;2024-03-06T15:21:01;9.60;97.90
42145;DHT22;27813;43.516;11.890;2024-03-06T15:25:28;9.50;98.00
42145;DHT22;27813;43.516;11.890;2024-03-06T15:29:40;9.30;97.90
42145;DHT22;27813;43.516;11.890;2024-03-06T15:34:06;9.20;98.00
42145;DHT22;27813;43.516;11.890;2024-03-06T15:38:29;9.10;98.00
42145;DHT22;27813;43.516;11.890;2024-03-06T15:42:36;9.00;97.90
42145;DHT22;27813;43.516;11.890;2024-03-06T15:46:53;8.90;97.90
42145;DHT22;27813;43.516;11.890;2024-03-06T15:51:26;8.80;98.00
42145;DHT22;27813;43.516;11.890;2024-03-06T15:55:51;8.80;98.20
42145;DHT22;27813;43.516;11.890;2024-03-06T16:00:27;8.90;98.30
42145;DHT22;27813;43.516;11.890;2024-03-06T16:04:59;8.80;98.20
42145;DHT22;27813;43.516;11.890;2024-03-06T16:09:30;8.70;98.20
42145;DHT22;27813;43.516;11.890;2024-03-06T16:13:56;8.70;98.20
42145;DHT22;27813;43.516;11.890;2024-03-06T16:18:30;9.00;98.60
42145;DHT22;27813;43.516;11.890;2024-03-06T16:22:57;9.10;98.70
42145;DHT22;27813;43.516;11.890;2024-03-06T16:27:18;9.00;98.50
42145;DHT22;27813;43.516;11.890;2024-03-06T16:31:29;8.90;98.20
42145;DHT22;27813;43.516;11.890;2024-03-06T16:35:55;8.60;97.70
42145;DHT22;27813;43.516;11.890;2024-03-06T16:40:27;8.20;96.80
42145;DHT22;27813;43.516;11.890;2024-03-06T16:45:04;7.80;96.00
42145;DHT22;27813;43.516;11.890;2024-03-06T16:49:20;7.50;95.90
42145;DHT22;27813;43.516;11.890;2024-03-06T16:53:43;7.20;95.80
42145;DHT22;27813;43.516;11.890;2024-03-06T16:58:10;7.00;96.20
42145;DHT22;27813;43.516;11.890;2024-03-06T17:02:23;7.10;97.30
42145;DHT22;27813;43.516;11.890;2024-03-06T17:06:35;7.40;98.00
42145;DHT22;27813;43.516;11.890;2024-03-06T17:10:51;7.60;98.20
42145;DHT22;27813;43.516;11.890;2024-03-06T17:14:56;7.70;98.30
42145;DHT22;27813;43.516;11.890;2024-03-06T17:19:01;7.70;98.20
42145;DHT22;27813;43.516;11.890;2024-03-06T17:23:07;7.70;98.10
42145;DHT22;27813;43.516;11.890;2024-03-06T17:27:18;7.60;98.00
42145;DHT22;27813;43.516;11.890;2024-03-06T17:31:42;7.50;97.80
42145;DHT22;27813;43.516;11.890;2024-03-06T17:35:48;7.30;97.50
42145;DHT22;27813;43.516;11.890;2024-03-06T17:40:01;7.00;97.00
42145;DHT22;27813;43.516;11.890;2024-03-06T17:44:19;6.80;96.60
42145;DHT22;27813;43.516;11.890;2024-03-06T17:48:51;6.40;96.20
42145;DHT22;27813;43.516;11.890;2024-03-06T17:53:18;6.20;96.30
42145;DHT22;27813;43.516;11.890;2024-03-06T17:57:27;6.20;96.50
42145;DHT22;27813;43.516;11.890;2024-03-06T18:01:33;5.90;96.50
42145;DHT22;27813;43.516;11.890;2024-03-06T18:05:39;5.80;96.50
42145;DHT22;27813;43.516;11.890;2024-03-06T18:09:48;5.70;96.50
42145;DHT22;27813;43.516;11.890;2024-03-06T18:13:54;5.60;96.60
42145;DHT22;27813;43.516;11.890;2024-03-06T18:18:00;5.50;96.60
42145;DHT22;27813;43.516;11.890;2024-03-06T18:22:04;5.50;96.50
42145;DHT22;27813;43.516;11.890;2024-03-06T18:26:09;5.30;95.80
42145;DHT22;27813;43.516;11.890;2024-03-06T18:30:14;5.00;95.40
42145;DHT22;27813;43.516;11.890;2024-03-06T18:34:19;4.80;95.30
42145;DHT22;27813;43.516;11.890;2024-03-06T18:38:23;4.60;95.30
42145;DHT22;27813;43.516;11.890;2024-03-06T18:42:27;4.40;95.30
42145;DHT22;27813;43.516;11.890;2024-03-06T18:46:32;4.30;95.60
42145;DHT22;27813;43.516;11.890;2024-03-06T18:50:38;4.20;95.80
42145;DHT22;27813;43.516;11.890;2024-03-06T18:54:42;4.20;95.70
42145;DHT22;27813;43.516;11.890;2024-03-06T18:58:49;4.00;95.50
42145;DHT22;27813;43.516;11.890;2024-03-06T19:02:53;4.00;95.60
42145;DHT22;27813;43.516;11.890;2024-03-06T19:06:58;3.90;95.70
42145;DHT22;27813;43.516;11.890;2024-03-06T19:11:03;3.90;95.90
42145;DHT22;27813;43.516;11.890;2024-03-06T19:15:08;4.00;96.20
42145;DHT22;27813;43.516;11.890;2024-03-06T19:19:13;4.00;96.20
42145;DHT22;27813;43.516;11.890;2024-03-06T19:23:19;4.10;96.20
42145;DHT22;27813;43.516;11.890;2024-03-06T19:27:23;4.00;95.70
42145;DHT22;27813;43.516;11.890;2024-03-06T19:31:32;3.80;95.30
42145;DHT22;27813;43.516;11.890;2024-03-06T19:35:39;3.60;95.20
42145;DHT22;27813;43.516;11.890;2024-03-06T19:39:46;3.40;95.00
42145;DHT22;27813;43.516;11.890;2024-03-06T19:43:52;3.20;95.00
42145;DHT22;27813;43.516;11.890;2024-03-06T19:48:00;3.10;95.30
42145;DHT22;27813;43.516;11.890;2024-03-06T19:52:06;3.10;95.10
42145;DHT22;27813;43.516;11.890;2024-03-06T19:56:12;2.90;95.00
42145;DHT22;27813;43.516;11.890;2024-03-06T20:00:18;2.90;95.00
42145;DHT22;27813;43.516;11.890;2024-03-06T20:04:24;2.80;95.20
42145;DHT22;27813;43.516;11.890;2024-03-06T20:08:28;2.80;95.40
42145;DHT22;27813;43.516;11.890;2024-03-06T20:12:32;2.70;95.10
42145;DHT22;27813;43.516;11.890;2024-03-06T20:16:38;2.60;95.20
42145;DHT22;27813;43.516;11.890;2024-03-06T20:20:47;2.60;95.40
42145;DHT22;27813;43.516;11.890;2024-03-06T20:24:53;2.50;95.10
42145;DHT22;27813;43.516;11.890;2024-03-06T20:29:02;2.40;95.00
42145;DHT22;27813;43.516;11.890;2024-03-06T20:33:13;2.30;95.30
42145;DHT22;27813;43.516;11.890;2024-03-06T20:37:50;2.40;95.80
42145;DHT22;27813;43.516;11.890;2024-03-06T20:41:58;2.40;95.70
42145;DHT22;27813;43.516;11.890;2024-03-06T20:46:08;2.50;96.00
42145;DHT22;27813;43.516;11.890;2024-03-06T20:50:16;2.60;96.00
42145;DHT22;27813;43.516;11.890;2024-03-06T20:54:26;2.50;95.50
42145;DHT22;27813;43.516;11.890;2024-03-06T20:58:34;2.40;95.20
42145;DHT22;27813;43.516;11.890;2024-03-06T21:02:39;2.20;95.10
42145;DHT22;27813;43.516;11.890;2024-03-06T21:06:47;2.10;95.30
42145;DHT22;27813;43.516;11.890;2024-03-06T21:10:55;2.10;95.40
42145;DHT22;27813;43.516;11.890;2024-03-06T21:15:11;2.10;95.60
42145;DHT22;27813;43.516;11.890;2024-03-06T21:19:34;2.10;95.70
42145;DHT22;27813;43.516;11.890;2024-03-06T21:23:42;2.10;95.60
42145;DHT22;27813;43.516;11.890;2024-03-06T21:27:48;2.10;95.70
42145;DHT22;27813;43.516;11.890;2024-03-06T21:31:57;2.10;95.80
42145;DHT22;27813;43.516;11.890;2024-03-06T21:36:04;2.10;95.50
42145;DHT22;27813;43.516;11.890;2024-03-06T21:40:17;2.00;95.60
42145;DHT22;27813;43.516;11.890;2024-03-06T21:44:25;1.90;95.30
42145;DHT22;27813;43.516;11.890;2024-03-06T21:48:33;1.70;94.90
42145;DHT22;27813;43.516;11.890;2024-03-06T21:52:42;1.60;94.90
42145;DHT22;27813;43.516;11.890;2024-03-06T21:56:54;1.50;94.70
42145;DHT22;27813;43.516;11.890;2024-03-06T22:01:02;1.40;94.90
42145;DHT22;27813;43.516;11.890;2024-03-06T22:05:09;1.30;95.10
42145;DHT22;27813;43.516;11.890;2024-03-06T22:09:17;1.30;95.10
42145;DHT22;27813;43.516;11.890;2024-03-06T22:13:22;1.30;95.20
42145;DHT22;27813;43.516;11.890;2024-03-06T22:17:32;1.30;95.30
42145;DHT22;27813;43.516;11.890;2024-03-06T22:21:37;1.30;95.40
42145;DHT22;27813;43.516;11.890;2024-03-06T22:25:41;1.30;95.40
42145;DHT22;27813;43.516;11.890;2024-03-06T22:29:50;1.30;95.20
42145;DHT22;27813;43.516;11.890;2024-03-06T22:33:55;1.30;95.20
42145;DHT22;27813;43.516;11.890;2024-03-06T22:38:00;1.20;95.00
42145;DHT22;27813;43.516;11.890;2024-03-06T22:42:10;1.10;95.20
42145;DHT22;27813;43.516;11.890;2024-03-06T22:46:15;1.10;95.40
42145;DHT22;27813;43.516;11.890;2024-03-06T22:50:19;1.10;95.40
42145;DHT22;27813;43.516;11.890;2024-03-06T22:54:23;1.10;95.40
42145;DHT22;27813;43.516;11.890;2024-03-06T22:58:28;1.00;95.00
